Valverde — ICHJ — position and weather

sailwx.info

Track history (hours):
 
Tides and Currents Weather Stations Pressure Air Temp Water Temp Dewpoint Dewpoint Depression Visibility Wind Speed Wind Dir Waves Ship Positions

Valverde

Last reported at 2018-Jan-19 10:50 UTC. Time now 2018-Jan-19 21:37 UTC.
Position N 39°20' W 009°57'.

Length 185 m; draft 8.3 m.

Type: Ship (hazmat cat A). MMSI: 247227900.

Date/timePositionNaut miles runAvg speedWind from/ knotsBaromVisibWave heightAir tempDewpointWater temp
2018-Jan-19 10:50N 39°20' W 009°57'410.4
2018-Jan-19 10:29N 39°16' W 009°57'510.6
2018-Jan-19 10:00N 39°11' W 009°57'510.5
2018-Jan-19 09:30N 39°06' W 009°57'510.3
2018-Jan-19 09:00N 39°01' W 009°57'510.3
2018-Jan-19 08:30N 38°56' W 009°57'510.3
2018-Jan-19 08:00N 38°51' W 009°57'510.3
2018-Jan-19 07:30N 38°45' W 009°56'510.2
2018-Jan-19 07:00N 38°40' W 009°56'5 9.9
2018-Jan-19 06:30N 38°36' W 009°53'611.3
2018-Jan-19 06:00N 38°34' W 009°46'611.3
2018-Jan-19 05:30N 38°34' W 009°39'612.6
2018-Jan-19 05:00N 38°36' W 009°31'612.6
2018-Jan-19 04:30N 38°37' W 009°23'611.5
2018-Jan-19 04:00N 38°41' W 009°18'4 8.0
2018-Jan-19 03:30N 38°41' W 009°12'0 0.2
2018-Jan-19 02:14N 38°41' W 009°12'0 0.0
2018-Jan-19 01:50N 38°41' W 009°12'0 0.0
2018-Jan-19 00:32N 38°41' W 009°12'0 0.1
2018-Jan-19 00:20N 38°41' W 009°12'0 0.0
2018-Jan-18 23:35N 38°41' W 009°12'0 0.1
2018-Jan-18 23:26N 38°41' W 009°12'0 0.3
2018-Jan-18 22:53N 38°41' W 009°12'0 0.1
2018-Jan-18 22:26N 38°41' W 009°12'0 0.0
2018-Jan-18 21:59N 38°41' W 009°12'0 0.0
2018-Jan-18 21:14N 38°41' W 009°12'0 0.1
2018-Jan-18 20:56N 38°41' W 009°12'0 0.0
2018-Jan-18 20:23N 38°41' W 009°12'0 0.0
2018-Jan-18 19:38N 38°41' W 009°12'0 0.2
2018-Jan-18 19:26N 38°41' W 009°12'0 0.0
2018-Jan-18 18:59N 38°41' W 009°12'0 0.0
2018-Jan-18 18:08N 38°41' W 009°12'0 0.1
2018-Jan-18 17:52N 38°41' W 009°12'1 1.7
2018-Jan-18 17:29N 38°41' W 009°13'3 6.8
2018-Jan-18 17:00N 38°41' W 009°17'5 9.1
2018-Jan-18 16:30N 38°38' W 009°22'5 9.7
2018-Jan-18 16:00N 38°37' W 009°28'4 8.3
2018-Jan-18 15:30N 38°37' W 009°33'2 4.2
2018-Jan-18 15:00N 38°36' W 009°31'2 4.1
2018-Jan-18 14:30N 38°35' W 009°29'2 4.6
2018-Jan-18 14:00N 38°33' W 009°26'2 4.9
2018-Jan-18 13:30N 38°31' W 009°24'3 5.1
2018-Jan-18 13:00N 38°30' W 009°22'1 1.7
2018-Jan-18 12:30N 38°30' W 009°22'1 1.4
2018-Jan-18 12:00N 38°31' W 009°22'1 1.4
2018-Jan-18 11:30N 38°32' W 009°23'1 1.7
2018-Jan-18 11:00N 38°32' W 009°24'2 4.9
2018-Jan-18 10:30N 38°33' W 009°27'2 3.2
2018-Jan-18 10:00N 38°34' W 009°28'1 2.8
2018-Jan-18 09:30N 38°35' W 009°30'3 6.8
2018-Jan-18 09:00N 38°36' W 009°34'2 4.0
2018-Jan-18 08:30N 38°37' W 009°36'2 4.4
2018-Jan-18 08:00N 38°36' W 009°33'3 5.4
2018-Jan-18 07:30N 38°36' W 009°30'1 1.6
2018-Jan-18 07:00N 38°36' W 009°29'1 1.6
2018-Jan-18 06:30N 38°36' W 009°28'1 1.6
2018-Jan-18 06:00N 38°37' W 009°29'1 1.1
2018-Jan-18 05:30N 38°36' W 009°29'2 4.3
2018-Jan-18 05:00N 38°35' W 009°26'511.2
2018-Jan-18 04:30N 38°30' W 009°24'611.4
2018-Jan-18 04:00N 38°24' W 009°22'5 9.3
2018-Jan-18 03:30N 38°21' W 009°18'510.6
2018-Jan-18 03:00N 38°20' W 009°11'611.6
2018-Jan-18 02:30N 38°20' W 009°04'611.1
2018-Jan-18 02:00N 38°20' W 008°57'1 2.0
2018-Jan-18 01:31N 38°22' W 008°57'1 2.0
2018-Jan-18 01:00N 38°20' W 008°57'2 2.0
2018-Jan-18 00:00N 38°22' W 008°57'0 2.8
2018-Jan-17 23:58N 38°23' W 008°57'  
2018-Jan-12 14:54N 38°28' W 008°48'0 0.0
2018-Jan-12 14:30N 38°28' W 008°48'0 0.0
2018-Jan-12 13:57N 38°28' W 008°48'0 0.0
2018-Jan-12 13:30N 38°28' W 008°48'0 0.0
2018-Jan-12 13:00N 38°28' W 008°48'0 0.0
2018-Jan-12 12:30N 38°28' W 008°48'0 0.0
2018-Jan-12 11:57N 38°28' W 008°48'0 0.0
2018-Jan-12 11:30N 38°28' W 008°48'0 0.0
2018-Jan-12 11:00N 38°28' W 008°48'0 0.0
2018-Jan-12 10:30N 38°28' W 008°48'0 0.0
2018-Jan-12 10:00N 38°28' W 008°48'0 0.0
2018-Jan-12 09:30N 38°28' W 008°48'0 0.0
2018-Jan-12 09:00N 38°28' W 008°48'0 0.0
2018-Jan-12 08:30N 38°28' W 008°48'0 0.0
2018-Jan-12 08:00N 38°28' W 008°48'0 0.0
2018-Jan-12 07:30N 38°28' W 008°48'0 0.0
2018-Jan-12 07:00N 38°28' W 008°48'0 0.0
2018-Jan-12 06:27N 38°28' W 008°48'0 0.0
2018-Jan-12 06:00N 38°28' W 008°48'0 0.0
2018-Jan-12 05:30N 38°28' W 008°48'0 0.0
2018-Jan-12 05:00N 38°28' W 008°48'0 0.0
2018-Jan-12 04:30N 38°28' W 008°48'0 0.0
2018-Jan-12 04:00N 38°28' W 008°48'0 0.0
2018-Jan-12 03:30N 38°28' W 008°48'0 0.0
2018-Jan-12 03:00N 38°28' W 008°48'0 0.0
2018-Jan-12 02:30N 38°28' W 008°48'0 0.0
2018-Jan-12 02:00N 38°28' W 008°48'0 0.0
2018-Jan-12 01:30N 38°28' W 008°48'0 0.0
2018-Jan-12 01:00N 38°28' W 008°48'0 0.0
2018-Jan-12 00:30N 38°28' W 008°48'0 0.0
2018-Jan-12 00:00N 38°28' W 008°48'0 0.0
2018-Jan-11 23:30N 38°28' W 008°48'0 0.0
2018-Jan-11 22:57N 38°28' W 008°48'0 0.0
2018-Jan-11 22:30N 38°28' W 008°48'0 0.0
2018-Jan-11 22:00N 38°28' W 008°48'0 0.0
2018-Jan-11 21:30N 38°28' W 008°48'0 0.0
2018-Jan-11 21:00N 38°28' W 008°48'0 0.0
2018-Jan-11 20:30N 38°28' W 008°48'0 0.0
2018-Jan-11 20:00N 38°28' W 008°48'0 0.0
2018-Jan-11 19:30N 38°28' W 008°48'0 0.0
2018-Jan-11 18:57N 38°28' W 008°48'0 0.0
2018-Jan-11 18:30N 38°28' W 008°48'0 0.0
2018-Jan-11 18:00N 38°28' W 008°48'0 0.0
2018-Jan-11 17:30N 38°28' W 008°48'0 0.0
2018-Jan-11 17:00N 38°28' W 008°48'0 0.0
2018-Jan-11 16:27N 38°28' W 008°48'0 0.0
2018-Jan-11 16:00N 38°28' W 008°48'0 0.0
2018-Jan-11 15:30N 38°28' W 008°48'0 0.0
2018-Jan-11 15:00N 38°28' W 008°48'0 0.0
2018-Jan-11 14:30N 38°28' W 008°48'0 0.0
2018-Jan-11 13:57N 38°28' W 008°48'0 0.0
2018-Jan-11 13:30N 38°28' W 008°48'0 0.0
2018-Jan-11 13:00N 38°28' W 008°48'0 0.0
2018-Jan-11 12:30N 38°28' W 008°48'0 0.0
2018-Jan-11 12:00N 38°28' W 008°48'0 0.0
2018-Jan-11 11:30N 38°28' W 008°48'0 0.0
2018-Jan-11 11:00N 38°28' W 008°48'0 0.5
2018-Jan-11 10:30N 38°28' W 008°47'0 0.7
2018-Jan-11 09:57N 38°28' W 008°47'0 0.0
2018-Jan-11 09:27N 38°28' W 008°47'0 0.0
2018-Jan-11 08:57N 38°28' W 008°47'0 0.0
2018-Jan-11 08:30N 38°28' W 008°47'0 0.0
2018-Jan-11 08:00N 38°28' W 008°47'0 0.0
2018-Jan-11 07:30N 38°28' W 008°47'0 0.0
2018-Jan-11 06:57N 38°28' W 008°47'0 0.0
2018-Jan-11 06:30N 38°28' W 008°47'0 0.1
2018-Jan-11 06:00N 38°28' W 008°47'0 0.2
2018-Jan-11 05:30N 38°29' W 008°47'0 0.1
2018-Jan-11 05:00N 38°29' W 008°47'0 0.1
2018-Jan-11 04:30N 38°29' W 008°47'0 0.0
2018-Jan-11 04:00N 38°29' W 008°47'0 0.0
2018-Jan-11 03:30N 38°29' W 008°47'0 0.0
2018-Jan-11 02:57N 38°29' W 008°47'0 0.0
2018-Jan-11 02:30N 38°29' W 008°47'0 0.0
2018-Jan-11 02:00N 38°29' W 008°47'0 0.0
2018-Jan-11 01:30N 38°29' W 008°47'0 0.0
2018-Jan-11 01:00N 38°29' W 008°47'0 0.0
2018-Jan-11 00:30N 38°29' W 008°47'0 0.0
2018-Jan-11 00:00N 38°29' W 008°47'0 0.0
2018-Jan-10 23:27N 38°29' W 008°47'0 0.0
2018-Jan-10 23:00N 38°29' W 008°47'0 0.0
2018-Jan-10 22:30N 38°29' W 008°47'0 0.0
2018-Jan-10 22:00N 38°29' W 008°47'0 0.0
2018-Jan-10 21:30N 38°29' W 008°47'0 0.0
2018-Jan-10 21:00N 38°29' W 008°47'0 0.0
2018-Jan-10 20:30N 38°29' W 008°47'0 0.0
2018-Jan-10 20:00N 38°29' W 008°47'0 0.0
2018-Jan-10 19:27N 38°29' W 008°47'0 0.0
2018-Jan-10 18:57N 38°29' W 008°47'0 0.0
2018-Jan-10 18:30N 38°29' W 008°47'0 0.0
2018-Jan-10 18:00N 38°29' W 008°47'0 0.0
2018-Jan-10 17:30N 38°29' W 008°47'0 0.0
2018-Jan-10 17:00N 38°29' W 008°47'0 0.0
2018-Jan-10 16:30N 38°29' W 008°47'0 0.0
2018-Jan-10 16:00N 38°29' W 008°47'0 0.0
2018-Jan-10 15:24N 38°29' W 008°47'0 0.0
2018-Jan-10 14:57N 38°29' W 008°47'0 0.0
2018-Jan-10 14:30N 38°29' W 008°47'0 0.0
2018-Jan-10 14:00N 38°29' W 008°47'0 0.0
2018-Jan-10 13:30N 38°29' W 008°47'0 0.0
2018-Jan-10 12:57N 38°29' W 008°47'0 0.0
2018-Jan-10 12:27N 38°29' W 008°47'0 0.0
2018-Jan-10 12:00N 38°29' W 008°47'0 0.0
2018-Jan-10 11:30N 38°29' W 008°47'0 0.0
2018-Jan-10 11:00N 38°29' W 008°47'0 0.0
2018-Jan-10 10:27N 38°29' W 008°47'0 0.0
2018-Jan-10 10:00N 38°29' W 008°47'0 0.0
2018-Jan-10 09:30N 38°29' W 008°47'0 0.0
2018-Jan-10 08:57N 38°29' W 008°47'0 0.0
2018-Jan-10 08:30N 38°29' W 008°47'0 0.0
2018-Jan-10 08:00N 38°29' W 008°47'0 0.0
2018-Jan-10 07:30N 38°29' W 008°47'0 0.0
2018-Jan-10 07:00N 38°29' W 008°47'0 0.0
2018-Jan-10 06:30N 38°29' W 008°47'0 0.0
2018-Jan-10 05:57N 38°29' W 008°47'0 0.0
2018-Jan-10 05:30N 38°29' W 008°47'0 0.0
2018-Jan-10 05:00N 38°29' W 008°47'0 0.0
2018-Jan-10 04:30N 38°29' W 008°47'0 0.0
2018-Jan-10 04:00N 38°29' W 008°47'0 0.0
2018-Jan-10 03:30N 38°29' W 008°47'0 0.0
2018-Jan-10 03:00N 38°29' W 008°47'0 0.0
2018-Jan-10 02:30N 38°29' W 008°47'0 0.0
2018-Jan-10 02:00N 38°29' W 008°47'0 0.0
2018-Jan-10 01:30N 38°29' W 008°47'0 0.0
2018-Jan-10 01:00N 38°29' W 008°47'0 0.0
2018-Jan-10 00:27N 38°29' W 008°47'0 0.0
2018-Jan-10 00:00N 38°29' W 008°47'0 0.0
2018-Jan-09 23:30N 38°29' W 008°47'0 0.0
2018-Jan-09 22:57N 38°29' W 008°47'0 0.0
2018-Jan-09 22:30N 38°29' W 008°47'0 0.0
2018-Jan-09 22:00N 38°29' W 008°47'0 0.0
2018-Jan-09 21:30N 38°29' W 008°47'0 0.0
2018-Jan-09 21:00N 38°29' W 008°47'0 0.0
2018-Jan-09 20:30N 38°29' W 008°47'0 0.0
2018-Jan-09 20:00N 38°29' W 008°47'0 0.0
2018-Jan-09 19:30N 38°29' W 008°47'0 0.0
2018-Jan-09 19:00N 38°29' W 008°47'0 0.0
2018-Jan-09 18:30N 38°29' W 008°47'0 0.0
2018-Jan-09 17:57N 38°29' W 008°47'0 0.0
2018-Jan-09 17:18N 38°29' W 008°47'0 0.0
2018-Jan-09 16:54N 38°29' W 008°47'0 0.0
2018-Jan-09 16:30N 38°29' W 008°47'0 0.0
2018-Jan-09 15:57N 38°29' W 008°47'0 0.0
2018-Jan-09 15:24N 38°29' W 008°47'0 0.0
2018-Jan-09 15:00N 38°29' W 008°47'0 0.0
2018-Jan-09 14:27N 38°29' W 008°47'0 0.0
2018-Jan-09 13:33N 38°29' W 008°47'0 0.3
2018-Jan-09 13:30N 38°29' W 008°47'0 0.0
2018-Jan-09 13:00N 38°29' W 008°47'0 0.0
2018-Jan-09 12:30N 38°29' W 008°47'0 0.0
2018-Jan-09 12:00N 38°29' W 008°47'0 0.0
2018-Jan-09 11:27N 38°29' W 008°47'0 0.0
2018-Jan-09 10:57N 38°29' W 008°47'  
Track history (hours):
 
Tides and Currents Weather Stations Pressure Air Temp Water Temp Dewpoint Dewpoint Depression Visibility Wind Speed Wind Dir Waves Ship Positions

Valverde

Last reported at 2018-Jan-19 10:50 UTC. Time now 2018-Jan-19 21:37 UTC.
Position N 39°20' W 009°57'.

Length 185 m; draft 8.3 m.

Type: Ship (hazmat cat A). MMSI: 247227900.

Date/timePositionNaut miles runAvg speedWind from/ knotsBaromVisibWave heightAir tempDewpointWater temp
2018-Jan-19 10:50N 39°20' W 009°57'410.4
2018-Jan-19 10:29N 39°16' W 009°57'510.6
2018-Jan-19 10:00N 39°11' W 009°57'510.5
2018-Jan-19 09:30N 39°06' W 009°57'510.3
2018-Jan-19 09:00N 39°01' W 009°57'510.3
2018-Jan-19 08:30N 38°56' W 009°57'510.3
2018-Jan-19 08:00N 38°51' W 009°57'510.3
2018-Jan-19 07:30N 38°45' W 009°56'510.2
2018-Jan-19 07:00N 38°40' W 009°56'5 9.9
2018-Jan-19 06:30N 38°36' W 009°53'611.3
2018-Jan-19 06:00N 38°34' W 009°46'611.3
2018-Jan-19 05:30N 38°34' W 009°39'612.6
2018-Jan-19 05:00N 38°36' W 009°31'612.6
2018-Jan-19 04:30N 38°37' W 009°23'611.5
2018-Jan-19 04:00N 38°41' W 009°18'4 8.0
2018-Jan-19 03:30N 38°41' W 009°12'0 0.2
2018-Jan-19 02:14N 38°41' W 009°12'0 0.0
2018-Jan-19 01:50N 38°41' W 009°12'0 0.0
2018-Jan-19 00:32N 38°41' W 009°12'0 0.1
2018-Jan-19 00:20N 38°41' W 009°12'0 0.0
2018-Jan-18 23:35N 38°41' W 009°12'0 0.1
2018-Jan-18 23:26N 38°41' W 009°12'0 0.3
2018-Jan-18 22:53N 38°41' W 009°12'0 0.1
2018-Jan-18 22:26N 38°41' W 009°12'0 0.0
2018-Jan-18 21:59N 38°41' W 009°12'0 0.0
2018-Jan-18 21:14N 38°41' W 009°12'0 0.1
2018-Jan-18 20:56N 38°41' W 009°12'0 0.0
2018-Jan-18 20:23N 38°41' W 009°12'0 0.0
2018-Jan-18 19:38N 38°41' W 009°12'0 0.2
2018-Jan-18 19:26N 38°41' W 009°12'0 0.0
2018-Jan-18 18:59N 38°41' W 009°12'0 0.0
2018-Jan-18 18:08N 38°41' W 009°12'0 0.1
2018-Jan-18 17:52N 38°41' W 009°12'1 1.7
2018-Jan-18 17:29N 38°41' W 009°13'3 6.8
2018-Jan-18 17:00N 38°41' W 009°17'5 9.1
2018-Jan-18 16:30N 38°38' W 009°22'5 9.7
2018-Jan-18 16:00N 38°37' W 009°28'4 8.3
2018-Jan-18 15:30N 38°37' W 009°33'2 4.2
2018-Jan-18 15:00N 38°36' W 009°31'2 4.1
2018-Jan-18 14:30N 38°35' W 009°29'2 4.6
2018-Jan-18 14:00N 38°33' W 009°26'2 4.9
2018-Jan-18 13:30N 38°31' W 009°24'3 5.1
2018-Jan-18 13:00N 38°30' W 009°22'1 1.7
2018-Jan-18 12:30N 38°30' W 009°22'1 1.4
2018-Jan-18 12:00N 38°31' W 009°22'1 1.4
2018-Jan-18 11:30N 38°32' W 009°23'1 1.7
2018-Jan-18 11:00N 38°32' W 009°24'2 4.9
2018-Jan-18 10:30N 38°33' W 009°27'2 3.2
2018-Jan-18 10:00N 38°34' W 009°28'1 2.8
2018-Jan-18 09:30N 38°35' W 009°30'3 6.8
2018-Jan-18 09:00N 38°36' W 009°34'2 4.0
2018-Jan-18 08:30N 38°37' W 009°36'2 4.4
2018-Jan-18 08:00N 38°36' W 009°33'3 5.4
2018-Jan-18 07:30N 38°36' W 009°30'1 1.6
2018-Jan-18 07:00N 38°36' W 009°29'1 1.6
2018-Jan-18 06:30N 38°36' W 009°28'1 1.6
2018-Jan-18 06:00N 38°37' W 009°29'1 1.1
2018-Jan-18 05:30N 38°36' W 009°29'2 4.3
2018-Jan-18 05:00N 38°35' W 009°26'511.2
2018-Jan-18 04:30N 38°30' W 009°24'611.4
2018-Jan-18 04:00N 38°24' W 009°22'5 9.3
2018-Jan-18 03:30N 38°21' W 009°18'510.6
2018-Jan-18 03:00N 38°20' W 009°11'611.6
2018-Jan-18 02:30N 38°20' W 009°04'611.1
2018-Jan-18 02:00N 38°20' W 008°57'1 2.0
2018-Jan-18 01:31N 38°22' W 008°57'1 2.0
2018-Jan-18 01:00N 38°20' W 008°57'2 2.0
2018-Jan-18 00:00N 38°22' W 008°57'0 2.8
2018-Jan-17 23:58N 38°23' W 008°57'  
2018-Jan-12 14:54N 38°28' W 008°48'0 0.0
2018-Jan-12 14:30N 38°28' W 008°48'0 0.0
2018-Jan-12 13:57N 38°28' W 008°48'0 0.0
2018-Jan-12 13:30N 38°28' W 008°48'0 0.0
2018-Jan-12 13:00N 38°28' W 008°48'0 0.0
2018-Jan-12 12:30N 38°28' W 008°48'0 0.0
2018-Jan-12 11:57N 38°28' W 008°48'0 0.0
2018-Jan-12 11:30N 38°28' W 008°48'0 0.0
2018-Jan-12 11:00N 38°28' W 008°48'0 0.0
2018-Jan-12 10:30N 38°28' W 008°48'0 0.0
2018-Jan-12 10:00N 38°28' W 008°48'0 0.0
2018-Jan-12 09:30N 38°28' W 008°48'0 0.0
2018-Jan-12 09:00N 38°28' W 008°48'0 0.0
2018-Jan-12 08:30N 38°28' W 008°48'0 0.0
2018-Jan-12 08:00N 38°28' W 008°48'0 0.0
2018-Jan-12 07:30N 38°28' W 008°48'0 0.0
2018-Jan-12 07:00N 38°28' W 008°48'0 0.0
2018-Jan-12 06:27N 38°28' W 008°48'0 0.0
2018-Jan-12 06:00N 38°28' W 008°48'0 0.0
2018-Jan-12 05:30N 38°28' W 008°48'0 0.0
2018-Jan-12 05:00N 38°28' W 008°48'0 0.0
2018-Jan-12 04:30N 38°28' W 008°48'0 0.0
2018-Jan-12 04:00N 38°28' W 008°48'0 0.0
2018-Jan-12 03:30N 38°28' W 008°48'0 0.0
2018-Jan-12 03:00N 38°28' W 008°48'0 0.0
2018-Jan-12 02:30N 38°28' W 008°48'0 0.0
2018-Jan-12 02:00N 38°28' W 008°48'0 0.0
2018-Jan-12 01:30N 38°28' W 008°48'0 0.0
2018-Jan-12 01:00N 38°28' W 008°48'0 0.0
2018-Jan-12 00:30N 38°28' W 008°48'0 0.0
2018-Jan-12 00:00N 38°28' W 008°48'0 0.0
2018-Jan-11 23:30N 38°28' W 008°48'0 0.0
2018-Jan-11 22:57N 38°28' W 008°48'0 0.0
2018-Jan-11 22:30N 38°28' W 008°48'0 0.0
2018-Jan-11 22:00N 38°28' W 008°48'0 0.0
2018-Jan-11 21:30N 38°28' W 008°48'0 0.0
2018-Jan-11 21:00N 38°28' W 008°48'0 0.0
2018-Jan-11 20:30N 38°28' W 008°48'0 0.0
2018-Jan-11 20:00N 38°28' W 008°48'0 0.0
2018-Jan-11 19:30N 38°28' W 008°48'0 0.0
2018-Jan-11 18:57N 38°28' W 008°48'0 0.0
2018-Jan-11 18:30N 38°28' W 008°48'0 0.0
2018-Jan-11 18:00N 38°28' W 008°48'0 0.0
2018-Jan-11 17:30N 38°28' W 008°48'0 0.0
2018-Jan-11 17:00N 38°28' W 008°48'0 0.0
2018-Jan-11 16:27N 38°28' W 008°48'0 0.0
2018-Jan-11 16:00N 38°28' W 008°48'0 0.0
2018-Jan-11 15:30N 38°28' W 008°48'0 0.0
2018-Jan-11 15:00N 38°28' W 008°48'0 0.0
2018-Jan-11 14:30N 38°28' W 008°48'0 0.0
2018-Jan-11 13:57N 38°28' W 008°48'0 0.0
2018-Jan-11 13:30N 38°28' W 008°48'0 0.0
2018-Jan-11 13:00N 38°28' W 008°48'0 0.0
2018-Jan-11 12:30N 38°28' W 008°48'0 0.0
2018-Jan-11 12:00N 38°28' W 008°48'0 0.0
2018-Jan-11 11:30N 38°28' W 008°48'0 0.0
2018-Jan-11 11:00N 38°28' W 008°48'0 0.5
2018-Jan-11 10:30N 38°28' W 008°47'0 0.7
2018-Jan-11 09:57N 38°28' W 008°47'0 0.0
2018-Jan-11 09:27N 38°28' W 008°47'0 0.0
2018-Jan-11 08:57N 38°28' W 008°47'0 0.0
2018-Jan-11 08:30N 38°28' W 008°47'0 0.0
2018-Jan-11 08:00N 38°28' W 008°47'0 0.0
2018-Jan-11 07:30N 38°28' W 008°47'0 0.0
2018-Jan-11 06:57N 38°28' W 008°47'0 0.0
2018-Jan-11 06:30N 38°28' W 008°47'0 0.1
2018-Jan-11 06:00N 38°28' W 008°47'0 0.2
2018-Jan-11 05:30N 38°29' W 008°47'0 0.1
2018-Jan-11 05:00N 38°29' W 008°47'0 0.1
2018-Jan-11 04:30N 38°29' W 008°47'0 0.0
2018-Jan-11 04:00N 38°29' W 008°47'0 0.0
2018-Jan-11 03:30N 38°29' W 008°47'0 0.0
2018-Jan-11 02:57N 38°29' W 008°47'0 0.0
2018-Jan-11 02:30N 38°29' W 008°47'0 0.0
2018-Jan-11 02:00N 38°29' W 008°47'0 0.0
2018-Jan-11 01:30N 38°29' W 008°47'0 0.0
2018-Jan-11 01:00N 38°29' W 008°47'0 0.0
2018-Jan-11 00:30N 38°29' W 008°47'0 0.0
2018-Jan-11 00:00N 38°29' W 008°47'0 0.0
2018-Jan-10 23:27N 38°29' W 008°47'0 0.0
2018-Jan-10 23:00N 38°29' W 008°47'0 0.0
2018-Jan-10 22:30N 38°29' W 008°47'0 0.0
2018-Jan-10 22:00N 38°29' W 008°47'0 0.0
2018-Jan-10 21:30N 38°29' W 008°47'0 0.0
2018-Jan-10 21:00N 38°29' W 008°47'0 0.0
2018-Jan-10 20:30N 38°29' W 008°47'0 0.0
2018-Jan-10 20:00N 38°29' W 008°47'0 0.0
2018-Jan-10 19:27N 38°29' W 008°47'0 0.0
2018-Jan-10 18:57N 38°29' W 008°47'0 0.0
2018-Jan-10 18:30N 38°29' W 008°47'0 0.0
2018-Jan-10 18:00N 38°29' W 008°47'0 0.0
2018-Jan-10 17:30N 38°29' W 008°47'0 0.0
2018-Jan-10 17:00N 38°29' W 008°47'0 0.0
2018-Jan-10 16:30N 38°29' W 008°47'0 0.0
2018-Jan-10 16:00N 38°29' W 008°47'0 0.0
2018-Jan-10 15:24N 38°29' W 008°47'0 0.0
2018-Jan-10 14:57N 38°29' W 008°47'0 0.0
2018-Jan-10 14:30N 38°29' W 008°47'0 0.0
2018-Jan-10 14:00N 38°29' W 008°47'0 0.0
2018-Jan-10 13:30N 38°29' W 008°47'0 0.0
2018-Jan-10 12:57N 38°29' W 008°47'0 0.0
2018-Jan-10 12:27N 38°29' W 008°47'0 0.0
2018-Jan-10 12:00N 38°29' W 008°47'0 0.0
2018-Jan-10 11:30N 38°29' W 008°47'0 0.0
2018-Jan-10 11:00N 38°29' W 008°47'0 0.0
2018-Jan-10 10:27N 38°29' W 008°47'0 0.0
2018-Jan-10 10:00N 38°29' W 008°47'0 0.0
2018-Jan-10 09:30N 38°29' W 008°47'0 0.0
2018-Jan-10 08:57N 38°29' W 008°47'0 0.0
2018-Jan-10 08:30N 38°29' W 008°47'0 0.0
2018-Jan-10 08:00N 38°29' W 008°47'0 0.0
2018-Jan-10 07:30N 38°29' W 008°47'0 0.0
2018-Jan-10 07:00N 38°29' W 008°47'0 0.0
2018-Jan-10 06:30N 38°29' W 008°47'0 0.0
2018-Jan-10 05:57N 38°29' W 008°47'0 0.0
2018-Jan-10 05:30N 38°29' W 008°47'0 0.0
2018-Jan-10 05:00N 38°29' W 008°47'0 0.0
2018-Jan-10 04:30N 38°29' W 008°47'0 0.0
2018-Jan-10 04:00N 38°29' W 008°47'0 0.0
2018-Jan-10 03:30N 38°29' W 008°47'0 0.0
2018-Jan-10 03:00N 38°29' W 008°47'0 0.0
2018-Jan-10 02:30N 38°29' W 008°47'0 0.0
2018-Jan-10 02:00N 38°29' W 008°47'0 0.0
2018-Jan-10 01:30N 38°29' W 008°47'0 0.0
2018-Jan-10 01:00N 38°29' W 008°47'0 0.0
2018-Jan-10 00:27N 38°29' W 008°47'0 0.0
2018-Jan-10 00:00N 38°29' W 008°47'0 0.0
2018-Jan-09 23:30N 38°29' W 008°47'0 0.0
2018-Jan-09 22:57N 38°29' W 008°47'0 0.0
2018-Jan-09 22:30N 38°29' W 008°47'0 0.0
2018-Jan-09 22:00N 38°29' W 008°47'0 0.0
2018-Jan-09 21:30N 38°29' W 008°47'0 0.0
2018-Jan-09 21:00N 38°29' W 008°47'0 0.0
2018-Jan-09 20:30N 38°29' W 008°47'0 0.0
2018-Jan-09 20:00N 38°29' W 008°47'0 0.0
2018-Jan-09 19:30N 38°29' W 008°47'0 0.0
2018-Jan-09 19:00N 38°29' W 008°47'0 0.0
2018-Jan-09 18:30N 38°29' W 008°47'0 0.0
2018-Jan-09 17:57N 38°29' W 008°47'0 0.0
2018-Jan-09 17:18N 38°29' W 008°47'0 0.0
2018-Jan-09 16:54N 38°29' W 008°47'0 0.0
2018-Jan-09 16:30N 38°29' W 008°47'0 0.0
2018-Jan-09 15:57N 38°29' W 008°47'0 0.0
2018-Jan-09 15:24N 38°29' W 008°47'0 0.0
2018-Jan-09 15:00N 38°29' W 008°47'0 0.0
2018-Jan-09 14:27N 38°29' W 008°47'0 0.0
2018-Jan-09 13:33N 38°29' W 008°47'0 0.3
2018-Jan-09 13:30N 38°29' W 008°47'0 0.0
2018-Jan-09 13:00N 38°29' W 008°47'0 0.0
2018-Jan-09 12:30N 38°29' W 008°47'0 0.0
2018-Jan-09 12:00N 38°29' W 008°47'0 0.0
2018-Jan-09 11:27N 38°29' W 008°47'0 0.0
2018-Jan-09 10:57N 38°29' W 008°47'  

Dump ship's entire track history